sensor_id;sensor_type;location;lat;lon;timestamp;P1;durP1;ratioP1;P2;durP2;ratioP2
34920;SDS011;21128;50.016;20.002;2023-05-10T00:01:33;25.57;;;11.80;;
34920;SDS011;21128;50.016;20.002;2023-05-10T00:04:00;24.95;;;12.70;;
34920;SDS011;21128;50.016;20.002;2023-05-10T00:06:27;29.10;;;11.73;;
34920;SDS011;21128;50.016;20.002;2023-05-10T00:08:54;20.43;;;11.63;;
34920;SDS011;21128;50.016;20.002;2023-05-10T00:11:21;18.63;;;10.60;;
34920;SDS011;21128;50.016;20.002;2023-05-10T00:13:48;25.95;;;12.13;;
34920;SDS011;21128;50.016;20.002;2023-05-10T00:16:15;30.85;;;11.55;;
34920;SDS011;21128;50.016;20.002;2023-05-10T00:18:42;22.00;;;11.43;;
34920;SDS011;21128;50.016;20.002;2023-05-10T00:21:09;19.63;;;10.87;;
34920;SDS011;21128;50.016;20.002;2023-05-10T00:23:36;18.93;;;10.13;;
34920;SDS011;21128;50.016;20.002;2023-05-10T00:26:03;21.70;;;10.40;;
34920;SDS011;21128;50.016;20.002;2023-05-10T00:28:30;21.97;;;11.05;;
34920;SDS011;21128;50.016;20.002;2023-05-10T00:30:57;26.07;;;11.87;;
34920;SDS011;21128;50.016;20.002;2023-05-10T00:33:24;24.90;;;11.77;;
34920;SDS011;21128;50.016;20.002;2023-05-10T00:35:52;22.80;;;12.30;;
34920;SDS011;21128;50.016;20.002;2023-05-10T00:38:19;24.43;;;13.50;;
34920;SDS011;21128;50.016;20.002;2023-05-10T00:40:46;20.37;;;11.57;;
34920;SDS011;21128;50.016;20.002;2023-05-10T00:43:12;20.82;;;11.08;;
34920;SDS011;21128;50.016;20.002;2023-05-10T00:45:40;17.40;;;10.27;;
34920;SDS011;21128;50.016;20.002;2023-05-10T00:48:07;16.87;;;9.93;;
34920;SDS011;21128;50.016;20.002;2023-05-10T00:50:35;20.55;;;10.20;;
34920;SDS011;21128;50.016;20.002;2023-05-10T00:53:02;17.87;;;8.90;;
34920;SDS011;21128;50.016;20.002;2023-05-10T00:55:30;19.30;;;10.15;;
34920;SDS011;21128;50.016;20.002;2023-05-10T00:57:58;19.33;;;10.77;;
34920;SDS011;21128;50.016;20.002;2023-05-10T01:00:25;26.07;;;14.67;;
34920;SDS011;21128;50.016;20.002;2023-05-10T01:02:53;32.50;;;18.00;;
34920;SDS011;21128;50.016;20.002;2023-05-10T01:05:20;21.20;;;11.40;;
34920;SDS011;21128;50.016;20.002;2023-05-10T01:07:47;24.23;;;10.95;;
34920;SDS011;21128;50.016;20.002;2023-05-10T01:10:14;24.33;;;12.70;;
34920;SDS011;21128;50.016;20.002;2023-05-10T01:12:42;28.77;;;12.50;;
34920;SDS011;21128;50.016;20.002;2023-05-10T01:15:12;18.23;;;10.30;;
34920;SDS011;21128;50.016;20.002;2023-05-10T01:17:42;22.73;;;10.77;;
34920;SDS011;21128;50.016;20.002;2023-05-10T01:20:11;19.97;;;10.17;;
34920;SDS011;21128;50.016;20.002;2023-05-10T01:25:31;19.37;;;9.93;;
34920;SDS011;21128;50.016;20.002;2023-05-10T01:28:34;23.03;;;10.20;;
34920;SDS011;21128;50.016;20.002;2023-05-10T01:34:09;17.20;;;10.55;;
34920;SDS011;21128;50.016;20.002;2023-05-10T01:42:22;18.13;;;9.97;;
34920;SDS011;21128;50.016;20.002;2023-05-10T01:50:09;17.50;;;9.37;;
34920;SDS011;21128;50.016;20.002;2023-05-10T01:52:41;25.83;;;10.13;;
34920;SDS011;21128;50.016;20.002;2023-05-10T01:55:13;24.33;;;10.97;;
34920;SDS011;21128;50.016;20.002;2023-05-10T01:57:43;24.57;;;11.57;;
34920;SDS011;21128;50.016;20.002;2023-05-10T02:00:13;17.80;;;11.70;;
34920;SDS011;21128;50.016;20.002;2023-05-10T02:02:42;20.63;;;12.63;;
34920;SDS011;21128;50.016;20.002;2023-05-10T02:05:13;21.27;;;12.13;;
34920;SDS011;21128;50.016;20.002;2023-05-10T02:07:42;16.83;;;11.27;;
34920;SDS011;21128;50.016;20.002;2023-05-10T02:10:10;17.23;;;11.43;;
34920;SDS011;21128;50.016;20.002;2023-05-10T02:12:43;18.60;;;11.00;;
34920;SDS011;21128;50.016;20.002;2023-05-10T02:15:15;16.93;;;11.23;;
34920;SDS011;21128;50.016;20.002;2023-05-10T02:17:45;23.65;;;13.25;;
34920;SDS011;21128;50.016;20.002;2023-05-10T02:20:13;31.77;;;20.87;;
34920;SDS011;21128;50.016;20.002;2023-05-10T02:22:42;49.97;;;31.20;;
34920;SDS011;21128;50.016;20.002;2023-05-10T02:25:11;60.45;;;39.10;;
34920;SDS011;21128;50.016;20.002;2023-05-10T02:27:40;24.60;;;15.85;;
34920;SDS011;21128;50.016;20.002;2023-05-10T02:30:11;18.60;;;13.93;;
34920;SDS011;21128;50.016;20.002;2023-05-10T02:32:39;19.43;;;12.47;;
34920;SDS011;21128;50.016;20.002;2023-05-10T02:35:08;17.23;;;12.27;;
34920;SDS011;21128;50.016;20.002;2023-05-10T02:37:39;21.73;;;12.57;;
34920;SDS011;21128;50.016;20.002;2023-05-10T02:40:07;21.13;;;11.87;;
34920;SDS011;21128;50.016;20.002;2023-05-10T02:42:35;19.63;;;12.23;;
34920;SDS011;21128;50.016;20.002;2023-05-10T02:45:05;18.43;;;11.83;;
34920;SDS011;21128;50.016;20.002;2023-05-10T02:47:37;21.73;;;12.00;;
34920;SDS011;21128;50.016;20.002;2023-05-10T02:50:05;18.17;;;12.97;;
34920;SDS011;21128;50.016;20.002;2023-05-10T02:52:37;26.70;;;12.63;;
34920;SDS011;21128;50.016;20.002;2023-05-10T02:55:07;23.83;;;13.27;;
34920;SDS011;21128;50.016;20.002;2023-05-10T02:57:38;25.43;;;13.27;;
34920;SDS011;21128;50.016;20.002;2023-05-10T03:00:10;31.23;;;12.80;;
34920;SDS011;21128;50.016;20.002;2023-05-10T03:02:37;31.15;;;11.70;;
34920;SDS011;21128;50.016;20.002;2023-05-10T03:05:05;25.93;;;12.60;;
34920;SDS011;21128;50.016;20.002;2023-05-10T03:07:32;17.20;;;10.97;;
34920;SDS011;21128;50.016;20.002;2023-05-10T03:10:00;17.40;;;10.70;;
34920;SDS011;21128;50.016;20.002;2023-05-10T03:15:32;16.77;;;10.17;;
34920;SDS011;21128;50.016;20.002;2023-05-10T03:18:21;21.93;;;11.37;;
34920;SDS011;21128;50.016;20.002;2023-05-10T03:20:54;22.13;;;10.98;;
34920;SDS011;21128;50.016;20.002;2023-05-10T03:23:35;23.53;;;11.00;;
34920;SDS011;21128;50.016;20.002;2023-05-10T03:26:07;19.80;;;9.83;;
34920;SDS011;21128;50.016;20.002;2023-05-10T03:28:35;22.93;;;9.23;;
34920;SDS011;21128;50.016;20.002;2023-05-10T03:31:03;14.17;;;9.30;;
34920;SDS011;21128;50.016;20.002;2023-05-10T03:33:32;18.47;;;9.00;;
34920;SDS011;21128;50.016;20.002;2023-05-10T03:35:59;23.15;;;8.60;;
34920;SDS011;21128;50.016;20.002;2023-05-10T03:38:26;18.77;;;8.90;;
34920;SDS011;21128;50.016;20.002;2023-05-10T03:40:53;14.38;;;7.65;;
34920;SDS011;21128;50.016;20.002;2023-05-10T03:43:20;17.10;;;8.65;;
34920;SDS011;21128;50.016;20.002;2023-05-10T03:45:47;14.35;;;7.20;;
34920;SDS011;21128;50.016;20.002;2023-05-10T03:48:13;18.03;;;8.13;;
34920;SDS011;21128;50.016;20.002;2023-05-10T03:50:40;16.67;;;6.95;;
34920;SDS011;21128;50.016;20.002;2023-05-10T03:53:07;11.90;;;6.73;;
34920;SDS011;21128;50.016;20.002;2023-05-10T03:55:34;15.30;;;6.50;;
34920;SDS011;21128;50.016;20.002;2023-05-10T03:58:02;15.27;;;7.70;;
34920;SDS011;21128;50.016;20.002;2023-05-10T04:00:29;23.17;;;8.43;;
34920;SDS011;21128;50.016;20.002;2023-05-10T04:02:57;13.50;;;6.10;;
34920;SDS011;21128;50.016;20.002;2023-05-10T04:05:23;14.60;;;7.33;;
34920;SDS011;21128;50.016;20.002;2023-05-10T04:07:50;16.13;;;6.60;;
34920;SDS011;21128;50.016;20.002;2023-05-10T04:10:17;16.30;;;8.10;;
34920;SDS011;21128;50.016;20.002;2023-05-10T04:12:44;15.50;;;7.03;;
34920;SDS011;21128;50.016;20.002;2023-05-10T04:15:11;11.12;;;7.05;;
34920;SDS011;21128;50.016;20.002;2023-05-10T04:17:39;15.13;;;7.07;;
34920;SDS011;21128;50.016;20.002;2023-05-10T04:20:06;14.20;;;6.55;;
34920;SDS011;21128;50.016;20.002;2023-05-10T04:22:34;18.80;;;6.83;;
34920;SDS011;21128;50.016;20.002;2023-05-10T04:25:00;10.23;;;6.10;;
34920;SDS011;21128;50.016;20.002;2023-05-10T04:27:27;16.57;;;9.20;;
34920;SDS011;21128;50.016;20.002;2023-05-10T04:29:54;11.73;;;6.70;;
34920;SDS011;21128;50.016;20.002;2023-05-10T04:32:21;16.97;;;6.55;;
34920;SDS011;21128;50.016;20.002;2023-05-10T04:34:48;14.27;;;6.33;;
34920;SDS011;21128;50.016;20.002;2023-05-10T04:37:17;18.17;;;6.03;;
34920;SDS011;21128;50.016;20.002;2023-05-10T04:39:44;10.17;;;5.90;;
34920;SDS011;21128;50.016;20.002;2023-05-10T04:42:11;15.03;;;6.77;;
34920;SDS011;21128;50.016;20.002;2023-05-10T04:44:38;12.55;;;5.37;;
34920;SDS011;21128;50.016;20.002;2023-05-10T04:47:06;16.87;;;6.20;;
34920;SDS011;21128;50.016;20.002;2023-05-10T04:49:33;11.43;;;5.65;;
34920;SDS011;21128;50.016;20.002;2023-05-10T04:52:00;17.87;;;6.70;;
34920;SDS011;21128;50.016;20.002;2023-05-10T04:54:27;20.57;;;6.80;;
34920;SDS011;21128;50.016;20.002;2023-05-10T04:56:54;16.57;;;6.60;;
34920;SDS011;21128;50.016;20.002;2023-05-10T04:59:20;15.13;;;6.00;;
34920;SDS011;21128;50.016;20.002;2023-05-10T05:01:47;16.87;;;5.30;;
34920;SDS011;21128;50.016;20.002;2023-05-10T05:04:14;16.80;;;6.73;;
34920;SDS011;21128;50.016;20.002;2023-05-10T05:06:42;21.53;;;6.33;;
34920;SDS011;21128;50.016;20.002;2023-05-10T05:09:09;12.10;;;5.83;;
34920;SDS011;21128;50.016;20.002;2023-05-10T05:11:36;14.50;;;6.50;;
34920;SDS011;21128;50.016;20.002;2023-05-10T05:14:03;15.97;;;6.23;;
34920;SDS011;21128;50.016;20.002;2023-05-10T05:16:30;14.13;;;6.50;;
34920;SDS011;21128;50.016;20.002;2023-05-10T05:18:59;12.77;;;5.30;;
34920;SDS011;21128;50.016;20.002;2023-05-10T05:21:27;16.93;;;6.17;;
34920;SDS011;21128;50.016;20.002;2023-05-10T05:23:55;11.43;;;6.40;;
34920;SDS011;21128;50.016;20.002;2023-05-10T05:26:22;15.70;;;6.28;;
34920;SDS011;21128;50.016;20.002;2023-05-10T05:28:49;13.80;;;6.33;;
34920;SDS011;21128;50.016;20.002;2023-05-10T05:31:19;18.57;;;6.53;;
34920;SDS011;21128;50.016;20.002;2023-05-10T05:33:46;12.68;;;6.37;;
34920;SDS011;21128;50.016;20.002;2023-05-10T05:36:13;13.10;;;6.15;;
34920;SDS011;21128;50.016;20.002;2023-05-10T05:38:42;8.90;;;5.60;;
34920;SDS011;21128;50.016;20.002;2023-05-10T05:41:09;17.55;;;6.85;;
34920;SDS011;21128;50.016;20.002;2023-05-10T05:43:36;13.20;;;6.60;;
34920;SDS011;21128;50.016;20.002;2023-05-10T05:46:03;15.07;;;6.40;;
34920;SDS011;21128;50.016;20.002;2023-05-10T05:48:31;12.17;;;6.27;;
34920;SDS011;21128;50.016;20.002;2023-05-10T05:50:58;12.53;;;6.63;;
34920;SDS011;21128;50.016;20.002;2023-05-10T05:53:25;16.70;;;6.40;;
34920;SDS011;21128;50.016;20.002;2023-05-10T05:55:53;15.70;;;6.13;;
34920;SDS011;21128;50.016;20.002;2023-05-10T05:58:24;12.00;;;5.67;;
34920;SDS011;21128;50.016;20.002;2023-05-10T06:00:52;13.50;;;6.03;;
34920;SDS011;21128;50.016;20.002;2023-05-10T06:03:19;13.62;;;5.90;;
34920;SDS011;21128;50.016;20.002;2023-05-10T06:05:46;11.73;;;5.05;;
34920;SDS011;21128;50.016;20.002;2023-05-10T06:08:13;15.17;;;5.80;;
34920;SDS011;21128;50.016;20.002;2023-05-10T06:10:40;11.60;;;5.60;;
34920;SDS011;21128;50.016;20.002;2023-05-10T06:13:07;10.47;;;5.23;;
34920;SDS011;21128;50.016;20.002;2023-05-10T06:15:34;9.83;;;5.43;;
34920;SDS011;21128;50.016;20.002;2023-05-10T06:18:01;10.57;;;5.73;;
34920;SDS011;21128;50.016;20.002;2023-05-10T06:20:28;8.90;;;5.67;;
34920;SDS011;21128;50.016;20.002;2023-05-10T06:22:57;9.80;;;5.43;;
34920;SDS011;21128;50.016;20.002;2023-05-10T06:25:25;12.60;;;5.80;;
34920;SDS011;21128;50.016;20.002;2023-05-10T06:27:52;13.33;;;6.57;;
34920;SDS011;21128;50.016;20.002;2023-05-10T06:30:24;9.87;;;5.53;;
34920;SDS011;21128;50.016;20.002;2023-05-10T06:32:54;11.47;;;5.60;;
34920;SDS011;21128;50.016;20.002;2023-05-10T06:35:22;18.15;;;6.12;;
34920;SDS011;21128;50.016;20.002;2023-05-10T06:37:49;22.77;;;6.00;;
34920;SDS011;21128;50.016;20.002;2023-05-10T06:40:17;15.77;;;6.40;;
34920;SDS011;21128;50.016;20.002;2023-05-10T06:42:45;15.05;;;5.30;;
34920;SDS011;21128;50.016;20.002;2023-05-10T06:45:13;14.37;;;7.93;;
34920;SDS011;21128;50.016;20.002;2023-05-10T06:47:41;13.17;;;5.60;;
34920;SDS011;21128;50.016;20.002;2023-05-10T06:50:08;13.35;;;6.45;;
34920;SDS011;21128;50.016;20.002;2023-05-10T06:52:36;11.87;;;5.67;;
34920;SDS011;21128;50.016;20.002;2023-05-10T06:55:04;15.23;;;5.10;;
34920;SDS011;21128;50.016;20.002;2023-05-10T06:57:31;17.77;;;5.90;;
34920;SDS011;21128;50.016;20.002;2023-05-10T06:59:58;11.28;;;6.03;;
34920;SDS011;21128;50.016;20.002;2023-05-10T07:02:26;14.35;;;5.30;;
34920;SDS011;21128;50.016;20.002;2023-05-10T07:04:53;14.77;;;5.10;;
34920;SDS011;21128;50.016;20.002;2023-05-10T07:07:20;7.73;;;4.63;;
34920;SDS011;21128;50.016;20.002;2023-05-10T07:09:47;20.95;;;5.95;;
34920;SDS011;21128;50.016;20.002;2023-05-10T07:12:16;11.00;;;5.40;;
34920;SDS011;21128;50.016;20.002;2023-05-10T07:14:43;8.10;;;5.17;;
34920;SDS011;21128;50.016;20.002;2023-05-10T07:17:10;10.43;;;4.83;;
34920;SDS011;21128;50.016;20.002;2023-05-10T07:19:37;10.65;;;5.17;;
34920;SDS011;21128;50.016;20.002;2023-05-10T07:22:04;13.53;;;5.13;;
34920;SDS011;21128;50.016;20.002;2023-05-10T07:24:31;13.60;;;5.22;;
34920;SDS011;21128;50.016;20.002;2023-05-10T07:26:58;11.35;;;5.35;;
34920;SDS011;21128;50.016;20.002;2023-05-10T07:29:25;13.27;;;5.13;;
34920;SDS011;21128;50.016;20.002;2023-05-10T07:31:53;16.80;;;5.60;;
34920;SDS011;21128;50.016;20.002;2023-05-10T07:34:20;11.57;;;5.07;;
34920;SDS011;21128;50.016;20.002;2023-05-10T07:36:47;12.50;;;5.20;;
34920;SDS011;21128;50.016;20.002;2023-05-10T07:39:14;12.10;;;5.33;;
34920;SDS011;21128;50.016;20.002;2023-05-10T07:41:41;13.20;;;4.27;;
34920;SDS011;21128;50.016;20.002;2023-05-10T07:44:07;9.98;;;4.28;;
34920;SDS011;21128;50.016;20.002;2023-05-10T07:46:34;18.60;;;5.40;;
34920;SDS011;21128;50.016;20.002;2023-05-10T07:49:01;8.20;;;4.43;;
34920;SDS011;21128;50.016;20.002;2023-05-10T07:51:28;14.55;;;5.10;;
34920;SDS011;21128;50.016;20.002;2023-05-10T07:53:55;11.10;;;5.13;;
34920;SDS011;21128;50.016;20.002;2023-05-10T07:58:53;8.60;;;4.50;;
34920;SDS011;21128;50.016;20.002;2023-05-10T08:01:21;10.00;;;3.80;;
34920;SDS011;21128;50.016;20.002;2023-05-10T08:03:48;8.30;;;3.90;;
34920;SDS011;21128;50.016;20.002;2023-05-10T08:06:16;6.77;;;4.10;;
34920;SDS011;21128;50.016;20.002;2023-05-10T08:08:47;12.10;;;4.07;;
34920;SDS011;21128;50.016;20.002;2023-05-10T08:11:20;5.57;;;3.43;;
34920;SDS011;21128;50.016;20.002;2023-05-10T08:13:48;10.57;;;3.33;;
34920;SDS011;21128;50.016;20.002;2023-05-10T08:16:16;4.97;;;3.37;;
34920;SDS011;21128;50.016;20.002;2023-05-10T08:18:44;7.37;;;3.37;;
34920;SDS011;21128;50.016;20.002;2023-05-10T08:21:13;6.00;;;3.03;;
34920;SDS011;21128;50.016;20.002;2023-05-10T08:23:41;5.30;;;2.87;;
34920;SDS011;21128;50.016;20.002;2023-05-10T08:26:10;4.50;;;2.57;;
34920;SDS011;21128;50.016;20.002;2023-05-10T08:28:37;3.45;;;2.15;;
34920;SDS011;21128;50.016;20.002;2023-05-10T08:31:04;4.03;;;2.60;;
34920;SDS011;21128;50.016;20.002;2023-05-10T08:33:32;2.93;;;2.20;;
34920;SDS011;21128;50.016;20.002;2023-05-10T08:35:59;3.13;;;2.50;;
34920;SDS011;21128;50.016;20.002;2023-05-10T08:38:26;5.63;;;2.13;;
34920;SDS011;21128;50.016;20.002;2023-05-10T08:40:54;3.65;;;2.35;;
34920;SDS011;21128;50.016;20.002;2023-05-10T08:43:28;7.50;;;2.50;;
34920;SDS011;21128;50.016;20.002;2023-05-10T08:45:56;3.87;;;2.73;;
34920;SDS011;21128;50.016;20.002;2023-05-10T08:48:29;3.67;;;2.20;;
34920;SDS011;21128;50.016;20.002;2023-05-10T08:50:58;2.97;;;2.27;;
34920;SDS011;21128;50.016;20.002;2023-05-10T08:53:27;3.57;;;2.23;;
34920;SDS011;21128;50.016;20.002;2023-05-10T08:55:57;5.00;;;2.40;;
34920;SDS011;21128;50.016;20.002;2023-05-10T08:58:24;4.43;;;2.30;;
34920;SDS011;21128;50.016;20.002;2023-05-10T09:00:52;3.58;;;2.12;;
34920;SDS011;21128;50.016;20.002;2023-05-10T09:03:19;12.03;;;2.60;;
34920;SDS011;21128;50.016;20.002;2023-05-10T09:05:47;11.60;;;2.33;;
34920;SDS011;21128;50.016;20.002;2023-05-10T09:08:16;6.83;;;2.00;;
34920;SDS011;21128;50.016;20.002;2023-05-10T09:10:44;6.70;;;2.35;;
34920;SDS011;21128;50.016;20.002;2023-05-10T09:13:16;4.80;;;2.20;;
34920;SDS011;21128;50.016;20.002;2023-05-10T09:15:44;6.40;;;1.93;;
34920;SDS011;21128;50.016;20.002;2023-05-10T09:18:12;5.17;;;1.77;;
34920;SDS011;21128;50.016;20.002;2023-05-10T09:20:39;4.67;;;2.40;;
34920;SDS011;21128;50.016;20.002;2023-05-10T09:23:06;10.80;;;2.00;;
34920;SDS011;21128;50.016;20.002;2023-05-10T09:25:34;9.03;;;2.00;;
34920;SDS011;21128;50.016;20.002;2023-05-10T09:28:01;2.57;;;1.60;;
34920;SDS011;21128;50.016;20.002;2023-05-10T09:30:29;3.83;;;1.97;;
34920;SDS011;21128;50.016;20.002;2023-05-10T09:32:57;9.40;;;1.80;;
34920;SDS011;21128;50.016;20.002;2023-05-10T09:35:27;7.80;;;2.20;;
34920;SDS011;21128;50.016;20.002;2023-05-10T09:37:57;2.47;;;1.70;;
34920;SDS011;21128;50.016;20.002;2023-05-10T09:40:27;2.53;;;1.80;;
34920;SDS011;21128;50.016;20.002;2023-05-10T09:45:30;2.27;;;2.07;;
34920;SDS011;21128;50.016;20.002;2023-05-10T09:47:59;3.60;;;2.13;;
34920;SDS011;21128;50.016;20.002;2023-05-10T09:50:28;2.40;;;1.77;;
34920;SDS011;21128;50.016;20.002;2023-05-10T09:52:57;5.37;;;1.90;;
34920;SDS011;21128;50.016;20.002;2023-05-10T09:55:37;4.07;;;1.80;;
34920;SDS011;21128;50.016;20.002;2023-05-10T09:58:11;4.00;;;1.67;;
34920;SDS011;21128;50.016;20.002;2023-05-10T10:00:42;5.97;;;1.90;;
34920;SDS011;21128;50.016;20.002;2023-05-10T10:03:18;4.27;;;1.73;;
34920;SDS011;21128;50.016;20.002;2023-05-10T10:05:49;2.37;;;1.70;;
34920;SDS011;21128;50.016;20.002;2023-05-10T10:08:17;3.63;;;1.80;;
34920;SDS011;21128;50.016;20.002;2023-05-10T10:10:44;1.60;;;1.43;;
34920;SDS011;21128;50.016;20.002;2023-05-10T10:13:12;2.50;;;1.60;;
34920;SDS011;21128;50.016;20.002;2023-05-10T10:15:40;3.00;;;1.60;;
34920;SDS011;21128;50.016;20.002;2023-05-10T10:18:13;3.70;;;1.40;;
34920;SDS011;21128;50.016;20.002;2023-05-10T10:20:41;3.93;;;2.17;;
34920;SDS011;21128;50.016;20.002;2023-05-10T10:23:09;3.37;;;1.80;;
34920;SDS011;21128;50.016;20.002;2023-05-10T10:25:36;2.40;;;1.60;;
34920;SDS011;21128;50.016;20.002;2023-05-10T10:28:16;5.07;;;1.50;;
34920;SDS011;21128;50.016;20.002;2023-05-10T10:31:11;6.33;;;1.53;;
34920;SDS011;21128;50.016;20.002;2023-05-10T10:34:27;11.65;;;2.20;;
34920;SDS011;21128;50.016;20.002;2023-05-10T10:36:48;5.87;;;1.90;;
34920;SDS011;21128;50.016;20.002;2023-05-10T10:39:16;6.00;;;1.90;;
34920;SDS011;21128;50.016;20.002;2023-05-10T10:41:57;6.00;;;2.03;;
34920;SDS011;21128;50.016;20.002;2023-05-10T10:47:07;4.10;;;1.60;;
34920;SDS011;21128;50.016;20.002;2023-05-10T10:49:51;3.90;;;1.40;;
34920;SDS011;21128;50.016;20.002;2023-05-10T10:52:31;3.33;;;1.27;;
34920;SDS011;21128;50.016;20.002;2023-05-10T10:55:03;4.43;;;1.40;;
34920;SDS011;21128;50.016;20.002;2023-05-10T10:57:42;2.93;;;1.50;;
34920;SDS011;21128;50.016;20.002;2023-05-10T11:03:11;3.90;;;1.70;;
34920;SDS011;21128;50.016;20.002;2023-05-10T11:05:48;6.70;;;2.20;;
34920;SDS011;21128;50.016;20.002;2023-05-10T11:08:29;3.67;;;1.60;;
34920;SDS011;21128;50.016;20.002;2023-05-10T11:13:34;2.47;;;1.60;;
34920;SDS011;21128;50.016;20.002;2023-05-10T11:16:20;7.73;;;1.77;;
34920;SDS011;21128;50.016;20.002;2023-05-10T11:21:29;7.60;;;1.60;;
34920;SDS011;21128;50.016;20.002;2023-05-10T11:23:58;3.53;;;1.60;;
34920;SDS011;21128;50.016;20.002;2023-05-10T11:26:30;2.50;;;1.50;;
34920;SDS011;21128;50.016;20.002;2023-05-10T11:28:58;3.05;;;1.60;;
34920;SDS011;21128;50.016;20.002;2023-05-10T11:31:27;3.53;;;1.47;;
34920;SDS011;21128;50.016;20.002;2023-05-10T11:33:55;6.97;;;2.20;;
34920;SDS011;21128;50.016;20.002;2023-05-10T11:36:28;2.53;;;1.40;;
34920;SDS011;21128;50.016;20.002;2023-05-10T11:38:58;4.50;;;1.53;;
34920;SDS011;21128;50.016;20.002;2023-05-10T11:41:27;4.90;;;1.63;;
34920;SDS011;21128;50.016;20.002;2023-05-10T11:43:55;2.10;;;1.40;;
34920;SDS011;21128;50.016;20.002;2023-05-10T11:46:24;2.30;;;1.60;;
34920;SDS011;21128;50.016;20.002;2023-05-10T11:48:54;4.47;;;1.53;;
34920;SDS011;21128;50.016;20.002;2023-05-10T11:51:24;5.73;;;1.70;;
34920;SDS011;21128;50.016;20.002;2023-05-10T11:53:55;2.45;;;1.75;;
34920;SDS011;21128;50.016;20.002;2023-05-10T11:56:23;5.17;;;1.50;;
34920;SDS011;21128;50.016;20.002;2023-05-10T11:58:55;3.03;;;2.03;;
34920;SDS011;21128;50.016;20.002;2023-05-10T12:01:24;5.63;;;1.80;;
34920;SDS011;21128;50.016;20.002;2023-05-10T12:03:53;3.03;;;1.50;;
34920;SDS011;21128;50.016;20.002;2023-05-10T12:06:26;7.43;;;1.70;;
34920;SDS011;21128;50.016;20.002;2023-05-10T12:08:55;3.33;;;1.50;;
34920;SDS011;21128;50.016;20.002;2023-05-10T12:11:24;4.40;;;1.83;;
34920;SDS011;21128;50.016;20.002;2023-05-10T12:13:53;4.30;;;1.47;;
34920;SDS011;21128;50.016;20.002;2023-05-10T12:16:23;6.47;;;2.90;;
34920;SDS011;21128;50.016;20.002;2023-05-10T12:18:52;2.17;;;1.50;;
34920;SDS011;21128;50.016;20.002;2023-05-10T12:21:24;5.42;;;1.70;;
34920;SDS011;21128;50.016;20.002;2023-05-10T12:23:52;4.25;;;1.55;;
34920;SDS011;21128;50.016;20.002;2023-05-10T12:26:21;1.90;;;1.50;;
34920;SDS011;21128;50.016;20.002;2023-05-10T12:28:49;3.60;;;1.70;;
34920;SDS011;21128;50.016;20.002;2023-05-10T12:31:16;5.90;;;1.80;;
34920;SDS011;21128;50.016;20.002;2023-05-10T12:33:43;2.87;;;1.60;;
34920;SDS011;21128;50.016;20.002;2023-05-10T12:36:12;3.62;;;1.75;;
34920;SDS011;21128;50.016;20.002;2023-05-10T12:38:41;5.70;;;1.90;;
34920;SDS011;21128;50.016;20.002;2023-05-10T12:41:10;4.27;;;1.83;;
34920;SDS011;21128;50.016;20.002;2023-05-10T12:43:39;2.70;;;1.70;;
34920;SDS011;21128;50.016;20.002;2023-05-10T12:48:35;4.60;;;1.30;;
34920;SDS011;21128;50.016;20.002;2023-05-10T12:51:03;4.50;;;1.90;;
34920;SDS011;21128;50.016;20.002;2023-05-10T12:53:31;3.23;;;1.53;;
34920;SDS011;21128;50.016;20.002;2023-05-10T12:55:58;5.27;;;1.60;;
34920;SDS011;21128;50.016;20.002;2023-05-10T12:58:25;6.90;;;1.70;;
34920;SDS011;21128;50.016;20.002;2023-05-10T13:00:52;3.47;;;1.70;;
34920;SDS011;21128;50.016;20.002;2023-05-10T13:03:20;4.30;;;1.50;;
34920;SDS011;21128;50.016;20.002;2023-05-10T13:05:47;4.20;;;1.87;;
34920;SDS011;21128;50.016;20.002;2023-05-10T13:08:14;3.50;;;1.57;;
34920;SDS011;21128;50.016;20.002;2023-05-10T13:10:41;2.45;;;1.60;;
34920;SDS011;21128;50.016;20.002;2023-05-10T13:13:08;6.30;;;1.50;;
34920;SDS011;21128;50.016;20.002;2023-05-10T13:15:36;4.00;;;1.60;;
34920;SDS011;21128;50.016;20.002;2023-05-10T13:18:03;3.47;;;1.70;;
34920;SDS011;21128;50.016;20.002;2023-05-10T13:20:30;3.43;;;2.03;;
34920;SDS011;21128;50.016;20.002;2023-05-10T13:22:57;3.33;;;1.27;;
34920;SDS011;21128;50.016;20.002;2023-05-10T13:25:24;4.50;;;1.63;;
34920;SDS011;21128;50.016;20.002;2023-05-10T13:27:52;3.77;;;1.60;;
34920;SDS011;21128;50.016;20.002;2023-05-10T13:30:19;2.95;;;1.40;;
34920;SDS011;21128;50.016;20.002;2023-05-10T13:32:48;5.62;;;1.50;;
34920;SDS011;21128;50.016;20.002;2023-05-10T13:35:15;6.23;;;1.47;;
34920;SDS011;21128;50.016;20.002;2023-05-10T13:37:42;5.42;;;1.55;;
34920;SDS011;21128;50.016;20.002;2023-05-10T13:40:09;5.57;;;1.60;;
34920;SDS011;21128;50.016;20.002;2023-05-10T13:42:37;2.80;;;1.70;;
34920;SDS011;21128;50.016;20.002;2023-05-10T13:45:04;5.33;;;1.43;;
34920;SDS011;21128;50.016;20.002;2023-05-10T13:47:32;5.80;;;1.50;;
34920;SDS011;21128;50.016;20.002;2023-05-10T13:49:59;3.03;;;1.70;;
34920;SDS011;21128;50.016;20.002;2023-05-10T13:52:27;3.57;;;1.70;;
34920;SDS011;21128;50.016;20.002;2023-05-10T13:54:54;4.47;;;1.47;;
34920;SDS011;21128;50.016;20.002;2023-05-10T13:57:22;3.47;;;2.03;;
34920;SDS011;21128;50.016;20.002;2023-05-10T13:59:51;3.67;;;2.10;;
34920;SDS011;21128;50.016;20.002;2023-05-10T14:02:18;6.00;;;1.50;;
34920;SDS011;21128;50.016;20.002;2023-05-10T14:04:46;3.75;;;1.60;;
34920;SDS011;21128;50.016;20.002;2023-05-10T14:07:13;2.70;;;1.57;;
34920;SDS011;21128;50.016;20.002;2023-05-10T14:09:40;3.90;;;1.60;;
34920;SDS011;21128;50.016;20.002;2023-05-10T14:12:07;2.73;;;1.57;;
34920;SDS011;21128;50.016;20.002;2023-05-10T14:14:34;5.93;;;1.40;;
34920;SDS011;21128;50.016;20.002;2023-05-10T14:17:01;2.72;;;1.47;;
34920;SDS011;21128;50.016;20.002;2023-05-10T14:19:29;2.67;;;1.37;;
34920;SDS011;21128;50.016;20.002;2023-05-10T14:21:59;7.07;;;1.77;;
34920;SDS011;21128;50.016;20.002;2023-05-10T14:24:26;3.53;;;1.73;;
34920;SDS011;21128;50.016;20.002;2023-05-10T14:26:53;3.47;;;1.60;;
34920;SDS011;21128;50.016;20.002;2023-05-10T14:29:20;5.60;;;1.37;;
34920;SDS011;21128;50.016;20.002;2023-05-10T14:31:48;1.95;;;1.32;;
34920;SDS011;21128;50.016;20.002;2023-05-10T14:34:16;5.50;;;1.43;;
34920;SDS011;21128;50.016;20.002;2023-05-10T14:36:43;5.07;;;1.70;;
34920;SDS011;21128;50.016;20.002;2023-05-10T14:39:10;2.47;;;1.65;;
34920;SDS011;21128;50.016;20.002;2023-05-10T14:41:39;6.40;;;1.65;;
34920;SDS011;21128;50.016;20.002;2023-05-10T14:44:10;6.37;;;1.70;;
34920;SDS011;21128;50.016;20.002;2023-05-10T14:46:37;5.45;;;1.72;;
34920;SDS011;21128;50.016;20.002;2023-05-10T14:49:06;4.60;;;2.03;;
34920;SDS011;21128;50.016;20.002;2023-05-10T14:51:33;7.47;;;1.42;;
34920;SDS011;21128;50.016;20.002;2023-05-10T14:54:00;5.30;;;1.70;;
34920;SDS011;21128;50.016;20.002;2023-05-10T14:56:27;5.00;;;2.40;;
34920;SDS011;21128;50.016;20.002;2023-05-10T14:58:54;3.60;;;1.90;;
34920;SDS011;21128;50.016;20.002;2023-05-10T15:01:22;6.20;;;1.93;;
34920;SDS011;21128;50.016;20.002;2023-05-10T15:03:49;6.90;;;2.10;;
34920;SDS011;21128;50.016;20.002;2023-05-10T15:06:16;4.87;;;1.70;;
34920;SDS011;21128;50.016;20.002;2023-05-10T15:08:43;13.00;;;1.87;;
34920;SDS011;21128;50.016;20.002;2023-05-10T15:11:10;4.42;;;1.77;;
34920;SDS011;21128;50.016;20.002;2023-05-10T15:13:38;2.03;;;1.40;;